sensor_id;sensor_type;location;lat;lon;timestamp;P1;durP1;ratioP1;P2;durP2;ratioP2
37451;SDS011;23314;51.114;6.900;2022-12-07T00:01:07;37.67;;;26.27;;
37451;SDS011;23314;51.114;6.900;2022-12-07T00:03:34;35.33;;;25.57;;
37451;SDS011;23314;51.114;6.900;2022-12-07T00:06:01;36.83;;;26.90;;
37451;SDS011;23314;51.114;6.900;2022-12-07T00:08:27;34.60;;;26.17;;
37451;SDS011;23314;51.114;6.900;2022-12-07T00:10:53;37.77;;;26.33;;
37451;SDS011;23314;51.114;6.900;2022-12-07T00:13:18;37.50;;;26.40;;
37451;SDS011;23314;51.114;6.900;2022-12-07T00:15:44;35.43;;;26.13;;
37451;SDS011;23314;51.114;6.900;2022-12-07T00:18:09;35.87;;;25.90;;
37451;SDS011;23314;51.114;6.900;2022-12-07T00:20:35;38.87;;;27.00;;
37451;SDS011;23314;51.114;6.900;2022-12-07T00:23:00;32.73;;;26.13;;
37451;SDS011;23314;51.114;6.900;2022-12-07T00:25:25;38.23;;;27.23;;
37451;SDS011;23314;51.114;6.900;2022-12-07T00:27:53;38.23;;;27.60;;
37451;SDS011;23314;51.114;6.900;2022-12-07T00:30:22;38.10;;;27.13;;
37451;SDS011;23314;51.114;6.900;2022-12-07T00:32:48;39.23;;;26.07;;
37451;SDS011;23314;51.114;6.900;2022-12-07T00:35:14;33.73;;;26.77;;
37451;SDS011;23314;51.114;6.900;2022-12-07T00:37:39;38.30;;;25.80;;
37451;SDS011;23314;51.114;6.900;2022-12-07T00:40:05;36.70;;;25.53;;
37451;SDS011;23314;51.114;6.900;2022-12-07T00:42:31;33.73;;;25.17;;
37451;SDS011;23314;51.114;6.900;2022-12-07T00:44:56;36.47;;;25.90;;
37451;SDS011;23314;51.114;6.900;2022-12-07T00:47:21;35.00;;;25.50;;
37451;SDS011;23314;51.114;6.900;2022-12-07T00:49:47;34.60;;;24.97;;
37451;SDS011;23314;51.114;6.900;2022-12-07T00:52:12;32.23;;;24.87;;
37451;SDS011;23314;51.114;6.900;2022-12-07T00:54:37;35.90;;;25.60;;
37451;SDS011;23314;51.114;6.900;2022-12-07T00:57:02;36.00;;;24.40;;
37451;SDS011;23314;51.114;6.900;2022-12-07T00:59:28;31.97;;;23.80;;
37451;SDS011;23314;51.114;6.900;2022-12-07T01:01:53;31.93;;;24.07;;
37451;SDS011;23314;51.114;6.900;2022-12-07T01:04:18;34.43;;;25.30;;
37451;SDS011;23314;51.114;6.900;2022-12-07T01:06:44;32.63;;;23.93;;
37451;SDS011;23314;51.114;6.900;2022-12-07T01:09:09;36.13;;;23.40;;
37451;SDS011;23314;51.114;6.900;2022-12-07T01:11:34;32.80;;;24.00;;
37451;SDS011;23314;51.114;6.900;2022-12-07T01:13:59;32.80;;;24.60;;
37451;SDS011;23314;51.114;6.900;2022-12-07T01:16:27;39.03;;;26.40;;
37451;SDS011;23314;51.114;6.900;2022-12-07T01:18:54;34.83;;;26.30;;
37451;SDS011;23314;51.114;6.900;2022-12-07T01:21:31;34.50;;;25.97;;
37451;SDS011;23314;51.114;6.900;2022-12-07T01:24:00;38.17;;;27.07;;
37451;SDS011;23314;51.114;6.900;2022-12-07T01:26:25;42.53;;;29.73;;
37451;SDS011;23314;51.114;6.900;2022-12-07T01:28:51;40.97;;;28.43;;
37451;SDS011;23314;51.114;6.900;2022-12-07T01:31:20;40.27;;;30.33;;
37451;SDS011;23314;51.114;6.900;2022-12-07T01:33:48;40.10;;;29.97;;
37451;SDS011;23314;51.114;6.900;2022-12-07T01:36:16;45.93;;;31.47;;
37451;SDS011;23314;51.114;6.900;2022-12-07T01:38:44;47.30;;;31.87;;
37451;SDS011;23314;51.114;6.900;2022-12-07T01:41:10;43.47;;;32.20;;
37451;SDS011;23314;51.114;6.900;2022-12-07T01:44:05;41.90;;;30.23;;
37451;SDS011;23314;51.114;6.900;2022-12-07T01:46:31;52.53;;;33.43;;
37451;SDS011;23314;51.114;6.900;2022-12-07T01:48:56;45.00;;;32.93;;
37451;SDS011;23314;51.114;6.900;2022-12-07T01:51:21;46.33;;;33.40;;
37451;SDS011;23314;51.114;6.900;2022-12-07T01:53:47;49.60;;;31.70;;
37451;SDS011;23314;51.114;6.900;2022-12-07T01:56:14;46.10;;;32.80;;
37451;SDS011;23314;51.114;6.900;2022-12-07T01:58:43;43.43;;;32.83;;
37451;SDS011;23314;51.114;6.900;2022-12-07T02:01:10;49.87;;;34.93;;
37451;SDS011;23314;51.114;6.900;2022-12-07T02:03:36;45.67;;;33.67;;
37451;SDS011;23314;51.114;6.900;2022-12-07T02:06:04;45.40;;;33.37;;
37451;SDS011;23314;51.114;6.900;2022-12-07T02:08:30;47.07;;;32.30;;
37451;SDS011;23314;51.114;6.900;2022-12-07T02:10:57;53.13;;;34.80;;
37451;SDS011;23314;51.114;6.900;2022-12-07T02:13:23;46.97;;;32.83;;
37451;SDS011;23314;51.114;6.900;2022-12-07T02:15:54;48.93;;;33.60;;
37451;SDS011;23314;51.114;6.900;2022-12-07T02:18:55;48.17;;;33.00;;
37451;SDS011;23314;51.114;6.900;2022-12-07T02:21:45;53.80;;;34.70;;
37451;SDS011;23314;51.114;6.900;2022-12-07T02:29:37;48.47;;;34.33;;
37451;SDS011;23314;51.114;6.900;2022-12-07T02:37:39;50.40;;;36.03;;
37451;SDS011;23314;51.114;6.900;2022-12-07T02:40:09;50.20;;;34.97;;
37451;SDS011;23314;51.114;6.900;2022-12-07T02:42:41;48.30;;;34.77;;
37451;SDS011;23314;51.114;6.900;2022-12-07T02:45:10;48.97;;;34.50;;
37451;SDS011;23314;51.114;6.900;2022-12-07T02:47:40;47.27;;;35.47;;
37451;SDS011;23314;51.114;6.900;2022-12-07T02:50:06;46.33;;;35.13;;
37451;SDS011;23314;51.114;6.900;2022-12-07T02:52:32;45.17;;;34.77;;
37451;SDS011;23314;51.114;6.900;2022-12-07T02:54:57;47.77;;;35.50;;
37451;SDS011;23314;51.114;6.900;2022-12-07T02:57:48;49.10;;;34.60;;
37451;SDS011;23314;51.114;6.900;2022-12-07T03:00:19;51.27;;;35.63;;
37451;SDS011;23314;51.114;6.900;2022-12-07T03:02:48;48.77;;;35.70;;
37451;SDS011;23314;51.114;6.900;2022-12-07T03:11:03;46.57;;;34.97;;
37451;SDS011;23314;51.114;6.900;2022-12-07T03:13:41;45.97;;;34.83;;
37451;SDS011;23314;51.114;6.900;2022-12-07T03:16:31;49.37;;;35.70;;
37451;SDS011;23314;51.114;6.900;2022-12-07T03:19:06;47.70;;;36.23;;
37451;SDS011;23314;51.114;6.900;2022-12-07T03:21:53;52.07;;;36.57;;
37451;SDS011;23314;51.114;6.900;2022-12-07T03:24:24;48.20;;;35.87;;
37451;SDS011;23314;51.114;6.900;2022-12-07T03:26:53;44.70;;;33.10;;
37451;SDS011;23314;51.114;6.900;2022-12-07T03:29:27;46.27;;;35.30;;
37451;SDS011;23314;51.114;6.900;2022-12-07T03:32:02;43.13;;;34.30;;
37451;SDS011;23314;51.114;6.900;2022-12-07T03:34:38;45.90;;;33.40;;
37451;SDS011;23314;51.114;6.900;2022-12-07T03:37:14;44.80;;;33.30;;
37451;SDS011;23314;51.114;6.900;2022-12-07T03:39:57;50.97;;;34.70;;
37451;SDS011;23314;51.114;6.900;2022-12-07T03:42:29;44.70;;;35.43;;
37451;SDS011;23314;51.114;6.900;2022-12-07T03:44:56;44.03;;;33.83;;
37451;SDS011;23314;51.114;6.900;2022-12-07T03:47:29;44.50;;;32.10;;
37451;SDS011;23314;51.114;6.900;2022-12-07T03:50:14;44.20;;;33.57;;
37451;SDS011;23314;51.114;6.900;2022-12-07T03:52:42;43.47;;;34.00;;
37451;SDS011;23314;51.114;6.900;2022-12-07T03:55:27;43.50;;;31.93;;
37451;SDS011;23314;51.114;6.900;2022-12-07T03:57:57;42.53;;;31.73;;
37451;SDS011;23314;51.114;6.900;2022-12-07T04:00:25;43.27;;;31.97;;
37451;SDS011;23314;51.114;6.900;2022-12-07T04:02:51;45.17;;;34.73;;
37451;SDS011;23314;51.114;6.900;2022-12-07T04:05:17;41.20;;;32.77;;
37451;SDS011;23314;51.114;6.900;2022-12-07T04:07:43;43.87;;;32.27;;
37451;SDS011;23314;51.114;6.900;2022-12-07T04:10:09;43.83;;;32.13;;
37451;SDS011;23314;51.114;6.900;2022-12-07T04:12:34;41.83;;;32.07;;
37451;SDS011;23314;51.114;6.900;2022-12-07T04:15:00;40.73;;;31.83;;
37451;SDS011;23314;51.114;6.900;2022-12-07T04:17:25;45.33;;;30.70;;
37451;SDS011;23314;51.114;6.900;2022-12-07T04:19:50;42.90;;;31.37;;
37451;SDS011;23314;51.114;6.900;2022-12-07T04:22:16;41.80;;;31.80;;
37451;SDS011;23314;51.114;6.900;2022-12-07T04:24:41;43.20;;;32.67;;
37451;SDS011;23314;51.114;6.900;2022-12-07T04:27:06;40.53;;;32.43;;
37451;SDS011;23314;51.114;6.900;2022-12-07T04:29:31;45.30;;;32.83;;
37451;SDS011;23314;51.114;6.900;2022-12-07T04:31:57;42.00;;;30.40;;
37451;SDS011;23314;51.114;6.900;2022-12-07T04:34:22;38.23;;;31.03;;
37451;SDS011;23314;51.114;6.900;2022-12-07T04:36:48;41.00;;;29.70;;
37451;SDS011;23314;51.114;6.900;2022-12-07T04:39:18;41.07;;;30.33;;
37451;SDS011;23314;51.114;6.900;2022-12-07T04:41:48;38.17;;;29.83;;
37451;SDS011;23314;51.114;6.900;2022-12-07T04:44:14;40.50;;;30.07;;
37451;SDS011;23314;51.114;6.900;2022-12-07T04:46:40;39.20;;;28.87;;
37451;SDS011;23314;51.114;6.900;2022-12-07T04:49:06;37.43;;;29.83;;
37451;SDS011;23314;51.114;6.900;2022-12-07T04:51:31;34.87;;;28.33;;
37451;SDS011;23314;51.114;6.900;2022-12-07T04:53:56;32.83;;;28.07;;
37451;SDS011;23314;51.114;6.900;2022-12-07T04:56:22;37.43;;;29.27;;
37451;SDS011;23314;51.114;6.900;2022-12-07T04:58:48;35.67;;;26.87;;
37451;SDS011;23314;51.114;6.900;2022-12-07T05:01:14;38.53;;;28.33;;
37451;SDS011;23314;51.114;6.900;2022-12-07T05:03:41;35.73;;;29.27;;
37451;SDS011;23314;51.114;6.900;2022-12-07T05:06:07;38.93;;;29.00;;
37451;SDS011;23314;51.114;6.900;2022-12-07T05:08:33;34.90;;;28.67;;
37451;SDS011;23314;51.114;6.900;2022-12-07T05:10:59;36.87;;;27.87;;
37451;SDS011;23314;51.114;6.900;2022-12-07T05:13:25;36.60;;;28.17;;
37451;SDS011;23314;51.114;6.900;2022-12-07T05:15:50;35.67;;;27.23;;
37451;SDS011;23314;51.114;6.900;2022-12-07T05:18:16;30.53;;;26.23;;
37451;SDS011;23314;51.114;6.900;2022-12-07T05:20:42;32.33;;;26.77;;
37451;SDS011;23314;51.114;6.900;2022-12-07T05:23:07;30.27;;;24.67;;
37451;SDS011;23314;51.114;6.900;2022-12-07T05:25:33;31.80;;;26.17;;
37451;SDS011;23314;51.114;6.900;2022-12-07T05:27:58;36.13;;;26.87;;
37451;SDS011;23314;51.114;6.900;2022-12-07T05:30:24;34.73;;;26.53;;
37451;SDS011;23314;51.114;6.900;2022-12-07T05:32:50;38.57;;;27.60;;
37451;SDS011;23314;51.114;6.900;2022-12-07T05:35:16;35.20;;;26.07;;
37451;SDS011;23314;51.114;6.900;2022-12-07T05:37:42;32.40;;;25.07;;
37451;SDS011;23314;51.114;6.900;2022-12-07T05:40:08;36.23;;;25.67;;
37451;SDS011;23314;51.114;6.900;2022-12-07T05:42:34;31.17;;;24.33;;
37451;SDS011;23314;51.114;6.900;2022-12-07T05:44:59;32.73;;;23.70;;
37451;SDS011;23314;51.114;6.900;2022-12-07T05:47:24;35.27;;;23.87;;
37451;SDS011;23314;51.114;6.900;2022-12-07T05:49:50;34.17;;;22.77;;
37451;SDS011;23314;51.114;6.900;2022-12-07T05:52:15;27.07;;;21.70;;
37451;SDS011;23314;51.114;6.900;2022-12-07T05:54:41;35.40;;;22.77;;
37451;SDS011;23314;51.114;6.900;2022-12-07T05:57:06;32.20;;;22.87;;
37451;SDS011;23314;51.114;6.900;2022-12-07T05:59:31;27.67;;;22.10;;
37451;SDS011;23314;51.114;6.900;2022-12-07T06:01:58;27.10;;;22.07;;
37451;SDS011;23314;51.114;6.900;2022-12-07T06:04:25;26.53;;;20.80;;
37451;SDS011;23314;51.114;6.900;2022-12-07T06:06:52;31.87;;;22.27;;
37451;SDS011;23314;51.114;6.900;2022-12-07T06:09:17;26.13;;;21.20;;
37451;SDS011;23314;51.114;6.900;2022-12-07T06:11:43;26.13;;;21.23;;
37451;SDS011;23314;51.114;6.900;2022-12-07T06:14:27;29.47;;;21.67;;
37451;SDS011;23314;51.114;6.900;2022-12-07T06:16:52;29.83;;;20.20;;
37451;SDS011;23314;51.114;6.900;2022-12-07T06:19:18;25.13;;;18.77;;
37451;SDS011;23314;51.114;6.900;2022-12-07T06:21:43;27.77;;;20.23;;
37451;SDS011;23314;51.114;6.900;2022-12-07T06:24:10;32.20;;;23.00;;
37451;SDS011;23314;51.114;6.900;2022-12-07T06:26:37;34.47;;;24.83;;
37451;SDS011;23314;51.114;6.900;2022-12-07T06:29:04;40.77;;;26.27;;
37451;SDS011;23314;51.114;6.900;2022-12-07T06:31:29;29.57;;;23.00;;
37451;SDS011;23314;51.114;6.900;2022-12-07T06:33:58;34.53;;;20.30;;
37451;SDS011;23314;51.114;6.900;2022-12-07T06:36:24;26.20;;;18.83;;
37451;SDS011;23314;51.114;6.900;2022-12-07T06:38:50;29.63;;;19.53;;
37451;SDS011;23314;51.114;6.900;2022-12-07T06:41:15;25.23;;;19.57;;
37451;SDS011;23314;51.114;6.900;2022-12-07T06:43:40;24.23;;;20.60;;
37451;SDS011;23314;51.114;6.900;2022-12-07T06:46:07;32.03;;;21.47;;
37451;SDS011;23314;51.114;6.900;2022-12-07T06:48:32;30.83;;;26.53;;
37451;SDS011;23314;51.114;6.900;2022-12-07T06:50:57;28.13;;;23.23;;
37451;SDS011;23314;51.114;6.900;2022-12-07T06:53:23;32.13;;;23.80;;
37451;SDS011;23314;51.114;6.900;2022-12-07T06:55:48;30.80;;;22.07;;
37451;SDS011;23314;51.114;6.900;2022-12-07T06:58:14;30.57;;;24.10;;
37451;SDS011;23314;51.114;6.900;2022-12-07T07:00:39;33.63;;;24.40;;
37451;SDS011;23314;51.114;6.900;2022-12-07T07:03:05;33.20;;;25.70;;
37451;SDS011;23314;51.114;6.900;2022-12-07T07:05:31;32.53;;;23.77;;
37451;SDS011;23314;51.114;6.900;2022-12-07T07:07:56;34.33;;;23.40;;
37451;SDS011;23314;51.114;6.900;2022-12-07T07:10:21;34.77;;;23.67;;
37451;SDS011;23314;51.114;6.900;2022-12-07T07:12:46;28.20;;;23.63;;
37451;SDS011;23314;51.114;6.900;2022-12-07T07:15:12;32.97;;;23.53;;
37451;SDS011;23314;51.114;6.900;2022-12-07T07:17:37;34.47;;;23.30;;
37451;SDS011;23314;51.114;6.900;2022-12-07T07:20:03;33.10;;;22.87;;
37451;SDS011;23314;51.114;6.900;2022-12-07T07:22:29;34.90;;;23.13;;
37451;SDS011;23314;51.114;6.900;2022-12-07T07:24:54;28.53;;;22.73;;
37451;SDS011;23314;51.114;6.900;2022-12-07T07:27:19;30.27;;;22.10;;
37451;SDS011;23314;51.114;6.900;2022-12-07T07:29:45;28.93;;;21.90;;
37451;SDS011;23314;51.114;6.900;2022-12-07T07:32:10;34.10;;;25.73;;
37451;SDS011;23314;51.114;6.900;2022-12-07T07:34:35;33.40;;;23.93;;
37451;SDS011;23314;51.114;6.900;2022-12-07T07:37:00;30.33;;;26.57;;
37451;SDS011;23314;51.114;6.900;2022-12-07T07:39:26;34.13;;;24.80;;
37451;SDS011;23314;51.114;6.900;2022-12-07T07:41:51;34.17;;;24.03;;
37451;SDS011;23314;51.114;6.900;2022-12-07T07:44:16;36.40;;;24.70;;
37451;SDS011;23314;51.114;6.900;2022-12-07T07:46:42;31.93;;;28.37;;
37451;SDS011;23314;51.114;6.900;2022-12-07T07:49:08;35.17;;;25.63;;
37451;SDS011;23314;51.114;6.900;2022-12-07T07:51:34;34.20;;;24.50;;
37451;SDS011;23314;51.114;6.900;2022-12-07T07:54:00;31.77;;;24.83;;
37451;SDS011;23314;51.114;6.900;2022-12-07T07:56:25;39.83;;;26.40;;
37451;SDS011;23314;51.114;6.900;2022-12-07T07:58:53;35.95;;;30.60;;
37451;SDS011;23314;51.114;6.900;2022-12-07T08:01:19;36.13;;;28.45;;
37451;SDS011;23314;51.114;6.900;2022-12-07T08:03:45;35.10;;;31.30;;
37451;SDS011;23314;51.114;6.900;2022-12-07T08:06:11;34.63;;;28.07;;
37451;SDS011;23314;51.114;6.900;2022-12-07T08:08:36;33.20;;;25.70;;
37451;SDS011;23314;51.114;6.900;2022-12-07T08:11:04;34.67;;;25.20;;
37451;SDS011;23314;51.114;6.900;2022-12-07T08:13:33;34.33;;;25.30;;
37451;SDS011;23314;51.114;6.900;2022-12-07T08:15:58;35.60;;;25.73;;
37451;SDS011;23314;51.114;6.900;2022-12-07T08:18:29;31.00;;;23.77;;
37451;SDS011;23314;51.114;6.900;2022-12-07T08:20:58;33.97;;;24.03;;
37451;SDS011;23314;51.114;6.900;2022-12-07T08:23:26;34.10;;;29.67;;
37451;SDS011;23314;51.114;6.900;2022-12-07T08:25:51;34.37;;;25.80;;
37451;SDS011;23314;51.114;6.900;2022-12-07T08:28:17;30.27;;;23.30;;
37451;SDS011;23314;51.114;6.900;2022-12-07T08:30:43;28.33;;;21.43;;
37451;SDS011;23314;51.114;6.900;2022-12-07T08:33:08;27.50;;;22.23;;
37451;SDS011;23314;51.114;6.900;2022-12-07T08:35:35;34.70;;;21.30;;
37451;SDS011;23314;51.114;6.900;2022-12-07T08:38:00;29.60;;;22.13;;
37451;SDS011;23314;51.114;6.900;2022-12-07T08:40:27;29.60;;;20.30;;
37451;SDS011;23314;51.114;6.900;2022-12-07T08:42:53;28.23;;;20.43;;
37451;SDS011;23314;51.114;6.900;2022-12-07T08:45:18;23.73;;;19.87;;
37451;SDS011;23314;51.114;6.900;2022-12-07T08:50:26;25.57;;;17.33;;
37451;SDS011;23314;51.114;6.900;2022-12-07T08:52:52;23.47;;;17.60;;
37451;SDS011;23314;51.114;6.900;2022-12-07T08:55:21;26.87;;;18.07;;
37451;SDS011;23314;51.114;6.900;2022-12-07T08:57:47;24.17;;;17.33;;
37451;SDS011;23314;51.114;6.900;2022-12-07T09:00:12;23.63;;;17.33;;
37451;SDS011;23314;51.114;6.900;2022-12-07T09:02:38;25.10;;;18.10;;
37451;SDS011;23314;51.114;6.900;2022-12-07T09:05:04;24.63;;;17.90;;
37451;SDS011;23314;51.114;6.900;2022-12-07T09:07:30;25.93;;;18.10;;
37451;SDS011;23314;51.114;6.900;2022-12-07T09:09:58;27.13;;;18.17;;
37451;SDS011;23314;51.114;6.900;2022-12-07T09:12:23;28.37;;;18.20;;
37451;SDS011;23314;51.114;6.900;2022-12-07T09:14:49;25.30;;;18.13;;
37451;SDS011;23314;51.114;6.900;2022-12-07T09:17:14;27.00;;;18.17;;
37451;SDS011;23314;51.114;6.900;2022-12-07T09:19:39;25.27;;;20.30;;
37451;SDS011;23314;51.114;6.900;2022-12-07T09:22:06;23.33;;;19.37;;
37451;SDS011;23314;51.114;6.900;2022-12-07T09:24:32;27.30;;;20.23;;
37451;SDS011;23314;51.114;6.900;2022-12-07T09:26:58;30.67;;;21.43;;
37451;SDS011;23314;51.114;6.900;2022-12-07T09:29:23;27.80;;;21.17;;
37451;SDS011;23314;51.114;6.900;2022-12-07T09:31:49;29.97;;;20.90;;
37451;SDS011;23314;51.114;6.900;2022-12-07T09:34:14;24.80;;;20.50;;
37451;SDS011;23314;51.114;6.900;2022-12-07T09:36:39;30.90;;;20.50;;
37451;SDS011;23314;51.114;6.900;2022-12-07T09:39:04;25.63;;;19.93;;
37451;SDS011;23314;51.114;6.900;2022-12-07T09:41:30;26.10;;;19.00;;
37451;SDS011;23314;51.114;6.900;2022-12-07T09:44:06;26.33;;;19.57;;
37451;SDS011;23314;51.114;6.900;2022-12-07T09:46:37;27.30;;;17.97;;
37451;SDS011;23314;51.114;6.900;2022-12-07T09:49:05;25.87;;;17.47;;
37451;SDS011;23314;51.114;6.900;2022-12-07T09:51:36;21.17;;;17.20;;
37451;SDS011;23314;51.114;6.900;2022-12-07T09:54:02;27.17;;;18.13;;
37451;SDS011;23314;51.114;6.900;2022-12-07T09:56:28;23.80;;;17.47;;
37451;SDS011;23314;51.114;6.900;2022-12-07T09:58:59;26.57;;;18.33;;
37451;SDS011;23314;51.114;6.900;2022-12-07T10:01:30;22.43;;;16.60;;
37451;SDS011;23314;51.114;6.900;2022-12-07T10:04:11;28.57;;;17.37;;
37451;SDS011;23314;51.114;6.900;2022-12-07T10:06:39;21.27;;;16.37;;
37451;SDS011;23314;51.114;6.900;2022-12-07T10:09:14;23.03;;;15.63;;
37451;SDS011;23314;51.114;6.900;2022-12-07T10:14:27;23.77;;;15.07;;
37451;SDS011;23314;51.114;6.900;2022-12-07T10:16:54;20.03;;;14.70;;
37451;SDS011;23314;51.114;6.900;2022-12-07T10:19:26;23.63;;;15.53;;
37451;SDS011;23314;51.114;6.900;2022-12-07T10:22:10;19.13;;;14.60;;
37451;SDS011;23314;51.114;6.900;2022-12-07T10:24:39;19.13;;;14.33;;
37451;SDS011;23314;51.114;6.900;2022-12-07T10:27:16;18.17;;;13.33;;
37451;SDS011;23314;51.114;6.900;2022-12-07T10:29:54;26.83;;;14.30;;
37451;SDS011;23314;51.114;6.900;2022-12-07T10:34:44;18.87;;;12.60;;
37451;SDS011;23314;51.114;6.900;2022-12-07T10:42:16;17.13;;;11.90;;
37451;SDS011;23314;51.114;6.900;2022-12-07T10:44:45;19.07;;;11.83;;
37451;SDS011;23314;51.114;6.900;2022-12-07T10:47:25;20.10;;;11.10;;
37451;SDS011;23314;51.114;6.900;2022-12-07T10:58:40;13.13;;;10.67;;
37451;SDS011;23314;51.114;6.900;2022-12-07T11:12:20;16.67;;;11.90;;
37451;SDS011;23314;51.114;6.900;2022-12-07T11:14:52;18.80;;;12.47;;
37451;SDS011;23314;51.114;6.900;2022-12-07T11:25:49;19.53;;;13.27;;
37451;SDS011;23314;51.114;6.900;2022-12-07T11:34:36;20.37;;;12.20;;
37451;SDS011;23314;51.114;6.900;2022-12-07T11:37:17;27.17;;;13.33;;
37451;SDS011;23314;51.114;6.900;2022-12-07T11:39:52;16.60;;;12.43;;
37451;SDS011;23314;51.114;6.900;2022-12-07T11:42:21;20.83;;;14.13;;
37451;SDS011;23314;51.114;6.900;2022-12-07T11:52:38;19.43;;;12.37;;
37451;SDS011;23314;51.114;6.900;2022-12-07T11:55:24;20.13;;;12.70;;
37451;SDS011;23314;51.114;6.900;2022-12-07T11:58:03;17.67;;;11.40;;
37451;SDS011;23314;51.114;6.900;2022-12-07T12:00:34;15.33;;;10.13;;
37451;SDS011;23314;51.114;6.900;2022-12-07T12:03:10;17.27;;;10.13;;
37451;SDS011;23314;51.114;6.900;2022-12-07T12:05:39;20.17;;;11.10;;
37451;SDS011;23314;51.114;6.900;2022-12-07T12:08:21;17.00;;;10.43;;
37451;SDS011;23314;51.114;6.900;2022-12-07T12:10:58;18.77;;;10.80;;
37451;SDS011;23314;51.114;6.900;2022-12-07T12:22:47;18.57;;;11.70;;
37451;SDS011;23314;51.114;6.900;2022-12-07T12:25:21;17.10;;;11.20;;
37451;SDS011;23314;51.114;6.900;2022-12-07T12:27:50;17.27;;;11.37;;
37451;SDS011;23314;51.114;6.900;2022-12-07T12:30:36;17.97;;;11.93;;
37451;SDS011;23314;51.114;6.900;2022-12-07T12:33:17;18.27;;;11.37;;
37451;SDS011;23314;51.114;6.900;2022-12-07T12:44:03;17.30;;;11.97;;
37451;SDS011;23314;51.114;6.900;2022-12-07T12:46:58;14.40;;;10.73;;
37451;SDS011;23314;51.114;6.900;2022-12-07T12:51:50;16.73;;;11.10;;
37451;SDS011;23314;51.114;6.900;2022-12-07T12:56:52;14.03;;;9.83;;
37451;SDS011;23314;51.114;6.900;2022-12-07T12:59:33;21.57;;;9.50;;
37451;SDS011;23314;51.114;6.900;2022-12-07T13:02:35;11.70;;;8.47;;
37451;SDS011;23314;51.114;6.900;2022-12-07T13:05:01;14.87;;;8.67;;
37451;SDS011;23314;51.114;6.900;2022-12-07T13:07:48;13.00;;;8.93;;
37451;SDS011;23314;51.114;6.900;2022-12-07T13:29:09;14.13;;;8.30;;
37451;SDS011;23314;51.114;6.900;2022-12-07T13:31:49;15.00;;;8.77;;
37451;SDS011;23314;51.114;6.900;2022-12-07T13:37:45;13.97;;;8.00;;
37451;SDS011;23314;51.114;6.900;2022-12-07T13:39:56;13.67;;;7.33;;
37451;SDS011;23314;51.114;6.900;2022-12-07T13:44:53;17.80;;;8.90;;
37451;SDS011;23314;51.114;6.900;2022-12-07T13:47:21;16.70;;;8.27;;
37451;SDS011;23314;51.114;6.900;2022-12-07T13:49:57;16.27;;;9.50;;
37451;SDS011;23314;51.114;6.900;2022-12-07T13:52:29;18.90;;;9.53;;
37451;SDS011;23314;51.114;6.900;2022-12-07T13:54:57;14.47;;;8.87;;
37451;SDS011;23314;51.114;6.900;2022-12-07T13:57:24;20.70;;;9.10;;
37451;SDS011;23314;51.114;6.900;2022-12-07T13:59:51;17.47;;;9.13;;
37451;SDS011;23314;51.114;6.900;2022-12-07T14:02:22;14.33;;;9.03;;
37451;SDS011;23314;51.114;6.900;2022-12-07T14:04:51;14.70;;;8.30;;
37451;SDS011;23314;51.114;6.900;2022-12-07T14:10:02;12.57;;;8.30;;
37451;SDS011;23314;51.114;6.900;2022-12-07T14:12:30;13.30;;;7.20;;
37451;SDS011;23314;51.114;6.900;2022-12-07T14:14:56;11.93;;;6.50;;
37451;SDS011;23314;51.114;6.900;2022-12-07T14:17:25;17.77;;;7.00;;
37451;SDS011;23314;51.114;6.900;2022-12-07T14:19:58;11.53;;;8.03;;
37451;SDS011;23314;51.114;6.900;2022-12-07T14:25:14;16.30;;;8.90;;
37451;SDS011;23314;51.114;6.900;2022-12-07T14:28:24;20.10;;;9.97;;
37451;SDS011;23314;51.114;6.900;2022-12-07T14:30:48;20.93;;;10.57;;
37451;SDS011;23314;51.114;6.900;2022-12-07T14:33:13;18.20;;;11.03;;
37451;SDS011;23314;51.114;6.900;2022-12-07T14:35:38;20.87;;;10.83;;
37451;SDS011;23314;51.114;6.900;2022-12-07T14:38:05;22.17;;;10.20;;
37451;SDS011;23314;51.114;6.900;2022-12-07T14:40:30;15.40;;;9.70;;
37451;SDS011;23314;51.114;6.900;2022-12-07T14:42:57;19.73;;;9.57;;
37451;SDS011;23314;51.114;6.900;2022-12-07T14:45:26;15.17;;;10.03;;
37451;SDS011;23314;51.114;6.900;2022-12-07T14:47:52;20.13;;;10.37;;
37451;SDS011;23314;51.114;6.900;2022-12-07T14:50:18;15.53;;;10.00;;
37451;SDS011;23314;51.114;6.900;2022-12-07T14:52:49;15.37;;;9.93;;
37451;SDS011;23314;51.114;6.900;2022-12-07T14:55:23;18.80;;;10.63;;
37451;SDS011;23314;51.114;6.900;2022-12-07T14:57:50;21.73;;;10.40;;
37451;SDS011;23314;51.114;6.900;2022-12-07T15:00:16;20.50;;;10.60;;
37451;SDS011;23314;51.114;6.900;2022-12-07T15:02:43;17.43;;;10.27;;
37451;SDS011;23314;51.114;6.900;2022-12-07T15:05:09;20.83;;;10.83;;
37451;SDS011;23314;51.114;6.900;2022-12-07T15:07:34;20.93;;;11.07;;
37451;SDS011;23314;51.114;6.900;2022-12-07T15:09:59;23.93;;;11.13;;
37451;SDS011;23314;51.114;6.900;2022-12-07T15:12:25;19.87;;;11.80;;
37451;SDS011;23314;51.114;6.900;2022-12-07T15:14:50;20.93;;;10.87;;
37451;SDS011;23314;51.114;6.900;2022-12-07T15:17:15;17.63;;;11.70;;
37451;SDS011;23314;51.114;6.900;2022-12-07T15:19:41;18.87;;;11.90;;
37451;SDS011;23314;51.114;6.900;2022-12-07T15:22:07;18.47;;;9.33;;
37451;SDS011;23314;51.114;6.900;2022-12-07T15:24:35;18.17;;;12.07;;
37451;SDS011;23314;51.114;6.900;2022-12-07T15:27:01;22.90;;;13.97;;
37451;SDS011;23314;51.114;6.900;2022-12-07T15:29:26;14.50;;;9.37;;
37451;SDS011;23314;51.114;6.900;2022-12-07T15:31:52;14.77;;;9.27;;
37451;SDS011;23314;51.114;6.900;2022-12-07T15:34:18;18.97;;;12.57;;
37451;SDS011;23314;51.114;6.900;2022-12-07T15:36:43;14.20;;;10.40;;
37451;SDS011;23314;51.114;6.900;2022-12-07T15:39:09;16.20;;;9.80;;
37451;SDS011;23314;51.114;6.900;2022-12-07T15:41:35;13.67;;;8.60;;
37451;SDS011;23314;51.114;6.900;2022-12-07T15:44:00;15.23;;;9.07;;
37451;SDS011;23314;51.114;6.900;2022-12-07T15:46:44;14.83;;;8.20;;
37451;SDS011;23314;51.114;6.900;2022-12-07T15:49:10;12.43;;;7.80;;
37451;SDS011;23314;51.114;6.900;2022-12-07T15:51:38;13.30;;;7.70;;
37451;SDS011;23314;51.114;6.900;2022-12-07T15:54:03;11.33;;;7.70;;
37451;SDS011;23314;51.114;6.900;2022-12-07T15:56:29;11.43;;;6.63;;
37451;SDS011;23314;51.114;6.900;2022-12-07T15:58:55;9.97;;;6.43;;
37451;SDS011;23314;51.114;6.900;2022-12-07T16:01:21;9.23;;;6.57;;
37451;SDS011;23314;51.114;6.900;2022-12-07T16:03:46;14.17;;;5.87;;
37451;SDS011;23314;51.114;6.900;2022-12-07T16:06:12;10.10;;;6.10;;
37451;SDS011;23314;51.114;6.900;2022-12-07T16:08:44;12.53;;;6.33;;
37451;SDS011;23314;51.114;6.900;2022-12-07T16:11:11;9.87;;;6.37;;
37451;SDS011;23314;51.114;6.900;2022-12-07T16:13:37;9.53;;;6.33;;
37451;SDS011;23314;51.114;6.900;2022-12-07T16:16:08;10.03;;;6.10;;
37451;SDS011;23314;51.114;6.900;2022-12-07T16:18:36;10.97;;;5.80;;
37451;SDS011;23314;51.114;6.900;2022-12-07T16:21:02;9.67;;;6.57;;
37451;SDS011;23314;51.114;6.900;2022-12-07T16:23:28;10.47;;;6.40;;
37451;SDS011;23314;51.114;6.900;2022-12-07T16:25:53;10.50;;;7.67;;
37451;SDS011;23314;51.114;6.900;2022-12-07T16:28:18;18.03;;;7.47;;
37451;SDS011;23314;51.114;6.900;2022-12-07T16:30:44;10.70;;;7.17;;
37451;SDS011;23314;51.114;6.900;2022-12-07T16:33:09;14.57;;;7.87;;
37451;SDS011;23314;51.114;6.900;2022-12-07T16:35:37;14.70;;;8.70;;